Time;durP1;ratioP1;P1;durP2;ratioP2;P2;SDS_P1;SDS_P2;PMS_P1;PMS_P2;Temp;Humidity;BMP_temperature;BMP_pressure;BME280_temperature;BME280_humidity;BME280_pressure;Samples;Min_cycle;Max_cycle;Signal;HPM_P1;HPM_P2
2022/05/07 00:01:20;;;;;;;9.33;6.50;;;;;;;;;;5001137;28;20451;-85
2022/05/07 00:03:47;;;;;;;10.02;7.00;;;;;;;;;;5002218;28;20441;-85
2022/05/07 00:06:13;;;;;;;7.60;6.90;;;;;;;;;;5002510;28;20441;-85
2022/05/07 00:08:39;;;;;;;8.40;6.83;;;;;;;;;;5000556;28;20511;-85
2022/05/07 00:11:05;;;;;;;7.32;6.38;;;;;;;;;;5003886;28;20425;-85
2022/05/07 00:13:32;;;;;;;8.23;7.00;;;;;;;;;;5002270;28;20429;-84
2022/05/07 00:18:43;;;;;;;8.93;8.02;;;;;;;;;;5001427;28;20493;-84
2022/05/07 00:21:09;;;;;;;11.23;8.40;;;;;;;;;;5001241;28;20433;-85
2022/05/07 00:23:37;;;;;;;10.60;8.48;;;;;;;;;;5002762;28;20437;-85
2022/05/07 00:26:04;;;;;;;10.25;8.40;;;;;;;;;;4999781;28;20446;-85
2022/05/07 00:28:30;;;;;;;12.48;8.50;;;;;;;;;;4999712;28;20435;-85
2022/05/07 00:30:56;;;;;;;9.45;8.48;;;;;;;;;;5002271;28;20428;-85
2022/05/07 00:33:24;;;;;;;9.25;8.30;;;;;;;;;;5000465;28;20444;-85
2022/05/07 00:35:50;;;;;;;10.43;8.43;;;;;;;;;;5005010;28;20435;-85
2022/05/07 00:38:17;;;;;;;10.68;8.88;;;;;;;;;;4999321;28;20438;-85
2022/05/07 00:40:43;;;;;;;9.18;8.18;;;;;;;;;;4999621;28;20432;-85
2022/05/07 00:43:12;;;;;;;9.00;8.10;;;;;;;;;;5002386;28;20438;-84
2022/05/07 00:45:39;;;;;;;10.75;8.50;;;;;;;;;;5000750;28;20513;-85
2022/05/07 00:48:05;;;;;;;8.70;7.80;;;;;;;;;;4998569;28;20446;-85
2022/05/07 00:53:17;;;;;;;8.13;7.32;;;;;;;;;;4998744;28;21007;-85
2022/05/07 00:55:44;;;;;;;9.27;8.20;;;;;;;;;;4995512;28;20832;-85
2022/05/07 00:58:11;;;;;;;9.70;8.75;;;;;;;;;;4998180;28;20434;-86
2022/05/07 01:00:37;;;;;;;10.82;9.70;;;;;;;;;;4993427;28;20777;-86
2022/05/07 01:03:04;;;;;;;10.23;9.05;;;;;;;;;;4993915;28;20491;-85
2022/05/07 01:05:31;;;;;;;9.95;8.82;;;;;;;;;;4993963;28;20458;-85
2022/05/07 01:08:00;;;;;;;11.55;10.10;;;;;;;;;;4993633;28;20823;-85
2022/05/07 01:10:26;;;;;;;10.85;9.85;;;;;;;;;;4992087;28;20438;-85
2022/05/07 01:12:54;;;;;;;11.53;10.00;;;;;;;;;;4997671;28;20442;-85
2022/05/07 01:15:20;;;;;;;11.15;9.45;;;;;;;;;;5001309;28;20432;-85
2022/05/07 01:17:47;;;;;;;11.77;9.80;;;;;;;;;;4998039;28;20413;-85
2022/05/07 01:20:14;;;;;;;10.98;9.50;;;;;;;;;;4999964;28;20426;-85
2022/05/07 01:22:42;;;;;;;11.60;9.90;;;;;;;;;;5001490;28;20512;-85
2022/05/07 01:25:08;;;;;;;11.60;10.40;;;;;;;;;;4998483;28;20422;-85
2022/05/07 01:27:35;;;;;;;9.77;8.77;;;;;;;;;;4999300;28;20984;-85
2022/05/07 01:30:01;;;;;;;11.37;9.50;;;;;;;;;;4999073;28;20960;-85
2022/05/07 01:32:27;;;;;;;9.90;8.90;;;;;;;;;;4997733;28;20473;-85
2022/05/07 01:34:53;;;;;;;10.70;9.50;;;;;;;;;;4999346;28;20416;-85
2022/05/07 01:37:20;;;;;;;9.88;8.80;;;;;;;;;;4998434;28;20432;-85
2022/05/07 01:39:48;;;;;;;14.02;9.48;;;;;;;;;;4998070;28;20939;-85
2022/05/07 01:42:14;;;;;;;11.40;10.30;;;;;;;;;;5000890;28;20438;-85
2022/05/07 01:44:40;;;;;;;11.47;9.50;;;;;;;;;;4995647;28;21005;-85
2022/05/07 01:50:00;;;;;;;11.85;10.05;;;;;;;;;;4999431;28;20425;-83
2022/05/07 01:52:27;;;;;;;13.63;12.23;;;;;;;;;;4999352;28;20860;-83
2022/05/07 01:54:54;;;;;;;14.17;11.67;;;;;;;;;;4998910;28;20424;-83
2022/05/07 01:57:21;;;;;;;14.13;11.80;;;;;;;;;;5001827;28;20442;-83
2022/05/07 01:59:47;;;;;;;13.40;10.13;;;;;;;;;;4994219;28;20422;-83
2022/05/07 02:02:13;;;;;;;12.43;11.23;;;;;;;;;;4998428;28;20500;-83
2022/05/07 02:04:40;;;;;;;11.45;10.25;;;;;;;;;;4997909;28;20485;-83
2022/05/07 02:07:07;;;;;;;12.73;10.77;;;;;;;;;;4995653;28;21023;-83
2022/05/07 02:09:33;;;;;;;13.25;10.05;;;;;;;;;;4996961;28;20949;-83
2022/05/07 02:12:01;;;;;;;11.63;10.40;;;;;;;;;;4997674;28;20522;-83
2022/05/07 02:14:27;;;;;;;12.00;10.80;;;;;;;;;;4999513;28;20427;-83
2022/05/07 02:16:53;;;;;;;11.90;10.60;;;;;;;;;;4994791;28;20446;-83
2022/05/07 02:19:19;;;;;;;13.77;11.10;;;;;;;;;;4998793;28;20992;-83
2022/05/07 02:21:46;;;;;;;14.52;11.80;;;;;;;;;;4998758;28;20414;-83
2022/05/07 02:24:12;;;;;;;13.30;11.90;;;;;;;;;;4996165;28;20481;-83
2022/05/07 02:26:38;;;;;;;12.93;11.23;;;;;;;;;;4998092;28;20453;-83
2022/05/07 02:29:06;;;;;;;13.50;12.10;;;;;;;;;;4998200;28;20427;-83
2022/05/07 02:31:32;;;;;;;13.50;12.10;;;;;;;;;;4999988;28;20959;-83
2022/05/07 02:33:58;;;;;;;13.85;11.40;;;;;;;;;;4996311;28;20443;-83
2022/05/07 02:36:25;;;;;;;14.70;11.35;;;;;;;;;;4995163;28;21373;-83
2022/05/07 02:38:51;;;;;;;11.82;10.63;;;;;;;;;;4997792;28;20518;-83
2022/05/07 02:44:02;;;;;;;11.45;10.25;;;;;;;;;;5000169;28;20421;-83
2022/05/07 02:46:29;;;;;;;12.32;10.80;;;;;;;;;;4996754;28;20431;-83
2022/05/07 02:48:56;;;;;;;12.27;10.27;;;;;;;;;;4993500;28;20436;-83
2022/05/07 02:51:22;;;;;;;11.80;10.60;;;;;;;;;;4999934;28;20421;-84
2022/05/07 02:53:48;;;;;;;14.48;10.75;;;;;;;;;;4996922;28;20432;-84
2022/05/07 02:56:14;;;;;;;10.90;9.80;;;;;;;;;;5002619;28;20481;-83
2022/05/07 02:58:41;;;;;;;12.03;10.83;;;;;;;;;;5000913;28;20445;-83
2022/05/07 03:01:07;;;;;;;12.23;10.68;;;;;;;;;;4999508;28;20437;-84
2022/05/07 03:03:34;;;;;;;11.60;10.40;;;;;;;;;;4999066;28;20433;-83
2022/05/07 03:06:01;;;;;;;14.43;11.70;;;;;;;;;;4998591;28;20430;-84
2022/05/07 03:08:27;;;;;;;12.32;10.98;;;;;;;;;;4999069;28;21214;-83
2022/05/07 03:10:53;;;;;;;13.60;11.07;;;;;;;;;;5000461;28;20433;-83
2022/05/07 03:13:20;;;;;;;12.27;10.98;;;;;;;;;;5000520;28;20845;-83
2022/05/07 03:15:46;;;;;;;12.38;11.07;;;;;;;;;;4999868;28;20422;-83
2022/05/07 03:18:13;;;;;;;12.60;11.30;;;;;;;;;;5000427;28;20998;-83
2022/05/07 03:20:41;;;;;;;15.00;12.50;;;;;;;;;;4997931;28;20529;-83
2022/05/07 03:23:07;;;;;;;13.38;12.05;;;;;;;;;;5000725;28;20593;-84
2022/05/07 03:25:33;;;;;;;15.43;13.13;;;;;;;;;;4999754;28;20491;-84
2022/05/07 03:28:00;;;;;;;16.07;13.90;;;;;;;;;;5000544;28;20857;-83
2022/05/07 03:30:26;;;;;;;16.50;14.48;;;;;;;;;;4998084;28;20462;-83
2022/05/07 03:32:52;;;;;;;15.80;14.20;;;;;;;;;;4998600;28;20932;-84
2022/05/07 03:35:18;;;;;;;15.50;13.90;;;;;;;;;;4997026;28;20983;-83
2022/05/07 03:37:46;;;;;;;16.45;13.70;;;;;;;;;;4999308;28;20435;-83
2022/05/07 03:40:12;;;;;;;17.23;14.52;;;;;;;;;;4996258;28;20439;-83
2022/05/07 03:42:39;;;;;;;15.45;13.85;;;;;;;;;;4999488;28;20432;-83
2022/05/07 03:45:06;;;;;;;17.50;14.13;;;;;;;;;;5001083;28;20421;-83
2022/05/07 03:47:32;;;;;;;12.85;11.55;;;;;;;;;;4997808;28;20430;-83
2022/05/07 03:49:58;;;;;;;14.05;12.50;;;;;;;;;;4998123;28;20471;-83
2022/05/07 03:55:10;;;;;;;16.25;13.43;;;;;;;;;;5000178;28;20457;-83
2022/05/07 03:57:36;;;;;;;15.13;12.80;;;;;;;;;;5000925;28;20500;-83
2022/05/07 04:00:03;;;;;;;14.00;12.60;;;;;;;;;;5000311;28;20432;-83
2022/05/07 04:02:31;;;;;;;14.18;12.68;;;;;;;;;;4999001;28;20933;-83
2022/05/07 04:04:58;;;;;;;15.52;13.40;;;;;;;;;;4997619;28;21032;-82
2022/05/07 04:07:24;;;;;;;16.60;13.75;;;;;;;;;;4996875;28;20432;-83
2022/05/07 04:09:54;;;;;;;17.20;13.40;;;;;;;;;;4999334;28;20434;-83
2022/05/07 04:12:22;;;;;;;19.75;16.50;;;;;;;;;;5001999;28;20440;-83
2022/05/07 04:14:48;;;;;;;19.90;17.40;;;;;;;;;;4997551;28;20436;-83
2022/05/07 04:17:14;;;;;;;18.08;15.45;;;;;;;;;;5000952;28;20434;-83
2022/05/07 04:19:40;;;;;;;21.33;16.83;;;;;;;;;;4999833;28;20469;-83
2022/05/07 04:22:07;;;;;;;20.10;16.30;;;;;;;;;;4998956;28;20434;-83
2022/05/07 04:24:34;;;;;;;20.98;17.02;;;;;;;;;;5001798;28;20430;-83
2022/05/07 04:27:00;;;;;;;22.42;17.35;;;;;;;;;;4999806;28;20926;-83
2022/05/07 04:29:28;;;;;;;22.45;16.25;;;;;;;;;;4997068;28;20432;-84
2022/05/07 04:31:54;;;;;;;25.27;18.40;;;;;;;;;;4998418;28;20537;-83
2022/05/07 04:34:22;;;;;;;25.35;18.80;;;;;;;;;;4994557;28;20429;-84
2022/05/07 04:36:48;;;;;;;20.20;17.10;;;;;;;;;;4998587;28;20445;-83
2022/05/07 04:39:14;;;;;;;23.38;18.02;;;;;;;;;;4998921;28;20443;-84
2022/05/07 04:41:40;;;;;;;20.83;17.35;;;;;;;;;;4996514;28;20432;-83
2022/05/07 04:44:07;;;;;;;21.95;18.55;;;;;;;;;;4997519;28;20426;-84
2022/05/07 04:46:34;;;;;;;22.30;18.27;;;;;;;;;;4998631;28;20429;-82
2022/05/07 04:49:01;;;;;;;22.13;17.98;;;;;;;;;;4998635;28;20824;-84
2022/05/07 04:51:27;;;;;;;25.05;18.95;;;;;;;;;;4998067;28;20792;-83
2022/05/07 04:53:53;;;;;;;28.45;21.05;;;;;;;;;;5001629;28;20422;-84
2022/05/07 04:56:22;;;;;;;23.27;20.20;;;;;;;;;;5000079;28;20434;-84
2022/05/07 04:58:48;;;;;;;26.85;21.23;;;;;;;;;;5000138;28;20507;-83
2022/05/07 05:01:14;;;;;;;26.17;21.30;;;;;;;;;;4995525;28;20438;-84
2022/05/07 05:03:42;;;;;;;25.70;21.38;;;;;;;;;;5000336;28;20425;-83
2022/05/07 05:06:08;;;;;;;28.38;22.55;;;;;;;;;;4996544;28;20852;-83
2022/05/07 05:08:34;;;;;;;32.00;24.50;;;;;;;;;;4997615;28;20443;-83
2022/05/07 05:11:01;;;;;;;30.13;25.50;;;;;;;;;;4999625;28;20429;-83
2022/05/07 05:13:27;;;;;;;29.08;23.75;;;;;;;;;;4999472;28;20493;-84
2022/05/07 05:15:53;;;;;;;31.50;26.08;;;;;;;;;;4997143;28;20947;-84
2022/05/07 05:18:19;;;;;;;29.00;23.83;;;;;;;;;;4994804;28;20436;-84
2022/05/07 05:20:47;;;;;;;30.25;24.50;;;;;;;;;;4999180;28;20431;-83
2022/05/07 05:23:13;;;;;;;29.80;23.75;;;;;;;;;;4998212;28;20436;-84
2022/05/07 05:25:43;;;;;;;37.05;30.13;;;;;;;;;;4998416;28;20422;-83
2022/05/07 05:28:11;;;;;;;40.67;33.53;;;;;;;;;;4998421;28;20438;-83
2022/05/07 05:30:38;;;;;;;39.90;31.87;;;;;;;;;;4996412;28;20438;-84
2022/05/07 05:33:04;;;;;;;38.33;29.30;;;;;;;;;;4995640;28;20473;-83
2022/05/07 05:35:30;;;;;;;40.05;31.55;;;;;;;;;;4993257;28;20472;-84
2022/05/07 05:37:58;;;;;;;37.70;32.53;;;;;;;;;;5000096;28;20507;-84
2022/05/07 05:40:25;;;;;;;41.35;33.05;;;;;;;;;;4996506;28;20433;-83
2022/05/07 05:42:51;;;;;;;46.58;32.13;;;;;;;;;;4996770;28;20993;-84
2022/05/07 05:45:17;;;;;;;39.30;29.05;;;;;;;;;;4995556;28;20489;-84
2022/05/07 05:47:43;;;;;;;37.70;26.70;;;;;;;;;;4996375;28;20850;-84
2022/05/07 05:50:10;;;;;;;49.45;36.22;;;;;;;;;;4997990;28;20473;-83
2022/05/07 05:52:36;;;;;;;47.85;36.25;;;;;;;;;;4996898;28;20547;-83
2022/05/07 05:55:04;;;;;;;49.17;36.92;;;;;;;;;;4996412;28;20495;-83
2022/05/07 05:57:30;;;;;;;50.75;39.90;;;;;;;;;;4998591;28;20442;-83
2022/05/07 05:59:57;;;;;;;57.28;42.38;;;;;;;;;;4996574;28;20417;-83
2022/05/07 06:02:23;;;;;;;65.63;45.57;;;;;;;;;;4999183;28;20432;-84
2022/05/07 06:04:49;;;;;;;65.05;47.45;;;;;;;;;;4999000;28;21034;-83
2022/05/07 06:07:16;;;;;;;69.93;49.33;;;;;;;;;;4997171;28;20928;-84
2022/05/07 06:09:42;;;;;;;74.60;50.45;;;;;;;;;;5002657;28;20767;-84
2022/05/07 06:12:10;;;;;;;71.55;51.95;;;;;;;;;;5001408;28;20421;-83
2022/05/07 06:14:36;;;;;;;89.22;56.42;;;;;;;;;;4995286;28;20430;-83
2022/05/07 06:17:03;;;;;;;80.63;55.15;;;;;;;;;;4996125;28;20433;-83
2022/05/07 06:19:30;;;;;;;76.38;55.33;;;;;;;;;;5001805;28;20780;-83
2022/05/07 06:21:57;;;;;;;81.75;54.00;;;;;;;;;;4998258;28;20623;-83
2022/05/07 06:29:53;;;;;;;95.05;63.03;;;;;;;;;;5000343;28;20421;-81
2022/05/07 06:32:19;;;;;;;90.63;61.80;;;;;;;;;;5000429;28;20449;-82
2022/05/07 06:34:45;;;;;;;86.83;58.83;;;;;;;;;;5004357;28;20418;-83
2022/05/07 06:37:12;;;;;;;83.18;56.15;;;;;;;;;;5002975;28;20854;-83
2022/05/07 06:39:39;;;;;;;87.25;59.75;;;;;;;;;;4999868;28;20482;-83
2022/05/07 06:42:05;;;;;;;81.68;57.58;;;;;;;;;;5002943;28;20494;-82
2022/05/07 06:44:32;;;;;;;79.25;54.70;;;;;;;;;;5002387;28;20841;-83
2022/05/07 06:46:59;;;;;;;74.60;53.67;;;;;;;;;;5002099;28;20825;-83
2022/05/07 06:49:25;;;;;;;71.43;52.22;;;;;;;;;;5002312;28;20423;-83
2022/05/07 06:51:52;;;;;;;68.75;48.53;;;;;;;;;;5002102;28;20438;-85
2022/05/07 06:54:18;;;;;;;57.65;42.95;;;;;;;;;;5003984;28;20416;-85
2022/05/07 06:56:45;;;;;;;54.42;41.15;;;;;;;;;;5000939;28;20893;-82
2022/05/07 06:59:11;;;;;;;54.03;39.88;;;;;;;;;;5001987;28;20414;-83
2022/05/07 07:01:37;;;;;;;59.87;42.43;;;;;;;;;;5003087;28;20467;-83
2022/05/07 07:04:05;;;;;;;61.53;46.67;;;;;;;;;;5001843;28;20442;-82
2022/05/07 07:06:31;;;;;;;59.53;44.70;;;;;;;;;;5001812;28;20466;-83
2022/05/07 07:08:58;;;;;;;44.55;35.00;;;;;;;;;;5002964;28;20918;-83
2022/05/07 07:11:24;;;;;;;49.20;37.15;;;;;;;;;;5001045;28;20428;-83
2022/05/07 07:13:51;;;;;;;46.95;36.58;;;;;;;;;;5001970;28;20418;-85
2022/05/07 07:16:18;;;;;;;48.35;37.72;;;;;;;;;;5002779;28;20420;-83
2022/05/07 07:18:44;;;;;;;51.78;38.67;;;;;;;;;;4999075;28;20433;-83
2022/05/07 07:21:12;;;;;;;43.83;31.48;;;;;;;;;;5001802;28;20848;-82
2022/05/07 07:23:38;;;;;;;41.72;32.08;;;;;;;;;;4997892;28;21008;-83
2022/05/07 07:26:05;;;;;;;46.92;35.58;;;;;;;;;;4999947;28;20483;-80
2022/05/07 07:28:31;;;;;;;50.88;38.70;;;;;;;;;;4998938;28;21036;-82
2022/05/07 07:30:58;;;;;;;49.70;38.60;;;;;;;;;;5000287;28;20435;-81
2022/05/07 07:33:24;;;;;;;55.65;42.28;;;;;;;;;;5000076;28;20523;-82
2022/05/07 07:35:50;;;;;;;57.00;43.20;;;;;;;;;;5002040;28;20433;-80
2022/05/07 07:38:18;;;;;;;52.50;40.53;;;;;;;;;;5000228;28;20434;-80
2022/05/07 07:40:49;;;;;;;49.00;40.90;;;;;;;;;;5003744;28;20453;-80
2022/05/07 07:43:16;;;;;;;51.83;41.80;;;;;;;;;;5002637;28;20461;-80
2022/05/07 07:48:26;;;;;;;47.38;37.35;;;;;;;;;;5004095;28;20428;-81
2022/05/07 07:50:53;;;;;;;46.85;36.50;;;;;;;;;;5018458;23;20423;-80
2022/05/07 07:53:22;;;;;;;47.90;37.05;;;;;;;;;;5008552;28;20432;-80
2022/05/07 07:55:48;;;;;;;43.55;36.47;;;;;;;;;;5003454;28;20440;-79
2022/05/07 07:58:15;;;;;;;41.70;34.40;;;;;;;;;;5009470;28;21024;-80
2022/05/07 08:00:42;;;;;;;39.40;31.50;;;;;;;;;;5004894;28;20430;-81
2022/05/07 08:03:11;;;;;;;34.03;27.85;;;;;;;;;;5010820;28;20425;-80
2022/05/07 08:05:37;;;;;;;35.30;30.38;;;;;;;;;;5004760;28;20836;-79
2022/05/07 08:13:34;;;;;;;29.90;25.60;;;;;;;;;;5007194;28;20447;-80
2022/05/07 08:16:00;;;;;;;28.80;22.02;;;;;;;;;;5004313;28;20946;-79
2022/05/07 08:18:27;;;;;;;24.90;21.10;;;;;;;;;;5006463;28;20443;-79
2022/05/07 08:20:53;;;;;;;22.70;18.35;;;;;;;;;;5006964;28;20483;-80
2022/05/07 08:23:20;;;;;;;20.65;15.20;;;;;;;;;;5008069;28;20451;-81
2022/05/07 08:25:46;;;;;;;17.43;15.00;;;;;;;;;;5009577;28;20856;-80
2022/05/07 08:28:14;;;;;;;21.70;16.20;;;;;;;;;;5009319;28;21352;-81
2022/05/07 08:30:40;;;;;;;18.98;14.98;;;;;;;;;;5003510;28;20433;-79
2022/05/07 08:33:06;;;;;;;18.48;15.63;;;;;;;;;;5001334;28;20433;-80
2022/05/07 08:35:32;;;;;;;20.10;15.93;;;;;;;;;;5009408;28;21068;-80
2022/05/07 08:37:59;;;;;;;20.00;15.53;;;;;;;;;;5004517;28;20928;-79
2022/05/07 08:40:26;;;;;;;17.40;14.73;;;;;;;;;;5010911;28;20424;-79
2022/05/07 08:42:54;;;;;;;17.80;15.48;;;;;;;;;;5005478;28;21064;-80
2022/05/07 08:45:21;;;;;;;21.98;17.23;;;;;;;;;;5002762;28;20480;-80
2022/05/07 08:47:51;;;;;;;20.15;15.82;;;;;;;;;;5009978;28;20448;-80
2022/05/07 08:50:18;;;;;;;16.65;13.90;;;;;;;;;;5006848;28;20838;-80
2022/05/07 08:52:45;;;;;;;16.95;14.23;;;;;;;;;;5001210;28;20465;-79
2022/05/07 08:55:12;;;;;;;18.90;13.43;;;;;;;;;;5006165;28;20520;-80
2022/05/07 08:57:39;;;;;;;18.45;13.93;;;;;;;;;;5008259;28;20974;-80
2022/05/07 09:00:06;;;;;;;15.20;12.90;;;;;;;;;;5004064;28;20453;-81
2022/05/07 09:02:39;;;;;;;15.57;11.70;;;;;;;;;;5004865;28;21705;-79
2022/05/07 09:05:06;;;;;;;17.17;12.90;;;;;;;;;;5000380;28;20953;-80
2022/05/07 09:07:32;;;;;;;15.30;13.30;;;;;;;;;;5007021;28;20520;-81
2022/05/07 09:09:59;;;;;;;15.23;12.68;;;;;;;;;;4999906;28;20426;-82
2022/05/07 09:12:25;;;;;;;17.23;14.00;;;;;;;;;;5010841;28;20838;-81
2022/05/07 09:14:52;;;;;;;19.90;15.52;;;;;;;;;;5008482;28;20425;-80
2022/05/07 09:17:19;;;;;;;19.90;15.43;;;;;;;;;;5007704;28;20432;-81
2022/05/07 09:19:46;;;;;;;16.67;14.90;;;;;;;;;;5006474;28;20826;-80
2022/05/07 09:22:13;;;;;;;20.08;15.25;;;;;;;;;;5007229;28;20444;-81
2022/05/07 09:24:39;;;;;;;23.10;17.13;;;;;;;;;;5007800;28;20425;-80
2022/05/07 09:27:06;;;;;;;22.85;17.45;;;;;;;;;;5002617;28;20505;-80
2022/05/07 09:29:33;;;;;;;22.33;16.70;;;;;;;;;;5006185;28;20474;-81
2022/05/07 09:32:07;;;;;;;19.63;15.18;;;;;;;;;;5009140;28;20830;-80
2022/05/07 09:37:19;;;;;;;21.52;17.67;;;;;;;;;;5009030;28;20492;-78
2022/05/07 09:39:47;;;;;;;22.90;17.70;;;;;;;;;;5005111;28;20944;-80
2022/05/07 09:42:13;;;;;;;22.75;18.42;;;;;;;;;;5004590;28;20524;-80
2022/05/07 09:44:40;;;;;;;22.38;16.98;;;;;;;;;;5009106;28;20435;-80
2022/05/07 09:47:09;;;;;;;20.35;16.17;;;;;;;;;;5002452;28;20831;-81
2022/05/07 09:49:36;;;;;;;21.25;16.02;;;;;;;;;;5007854;28;20435;-79
2022/05/07 09:52:04;;;;;;;22.15;16.58;;;;;;;;;;5009190;28;20486;-81
2022/05/07 09:57:33;;;;;;;17.92;14.35;;;;;;;;;;4986422;28;21127;-82
2022/05/07 10:00:02;;;;;;;18.70;14.47;;;;;;;;;;5008301;28;20429;-81
2022/05/07 10:02:37;;;;;;;17.27;14.20;;;;;;;;;;5009020;28;20437;-81
2022/05/07 10:05:18;;;;;;;16.33;13.02;;;;;;;;;;5014565;28;20508;-80
2022/05/07 10:07:51;;;;;;;17.67;13.90;;;;;;;;;;5001144;28;20424;-79
2022/05/07 10:10:21;;;;;;;16.05;13.00;;;;;;;;;;5011491;28;20506;-80
2022/05/07 10:12:48;;;;;;;14.98;13.00;;;;;;;;;;5012495;28;20444;-80
2022/05/07 10:15:16;;;;;;;15.85;12.90;;;;;;;;;;5011971;28;20503;-82
2022/05/07 10:17:43;;;;;;;17.13;14.50;;;;;;;;;;5013938;28;20423;-82
2022/05/07 10:20:12;;;;;;;16.95;13.35;;;;;;;;;;5010977;28;20421;-79
2022/05/07 10:22:39;;;;;;;16.23;12.25;;;;;;;;;;5007642;28;20468;-80
2022/05/07 10:25:06;;;;;;;14.55;12.30;;;;;;;;;;5004544;28;20437;-79
2022/05/07 10:27:35;;;;;;;14.05;10.85;;;;;;;;;;5007578;28;20534;-80
2022/05/07 10:30:06;;;;;;;14.95;9.98;;;;;;;;;;5005980;28;20437;-79
2022/05/07 10:32:44;;;;;;;16.77;11.90;;;;;;;;;;5005539;28;20944;-80
2022/05/07 10:35:10;;;;;;;12.77;9.55;;;;;;;;;;5011314;28;20490;-79
2022/05/07 10:37:40;;;;;;;11.35;9.35;;;;;;;;;;5009611;28;20497;-79
2022/05/07 10:40:10;;;;;;;12.90;9.23;;;;;;;;;;5007954;28;20420;-80
2022/05/07 10:42:40;;;;;;;9.45;8.10;;;;;;;;;;5009919;28;20429;-80
2022/05/07 10:45:07;;;;;;;11.30;7.50;;;;;;;;;;5010661;28;20516;-80
2022/05/07 10:47:33;;;;;;;9.00;6.60;;;;;;;;;;5005674;28;20925;-80
2022/05/07 10:50:09;;;;;;;6.90;5.90;;;;;;;;;;5009601;28;20420;-80
2022/05/07 10:52:35;;;;;;;10.07;7.40;;;;;;;;;;5008354;28;20519;-81
2022/05/07 10:55:09;;;;;;;10.27;7.27;;;;;;;;;;5008493;28;20451;-79
2022/05/07 10:57:43;;;;;;;10.02;6.97;;;;;;;;;;5008559;28;20965;-80
2022/05/07 11:00:11;;;;;;;9.75;6.80;;;;;;;;;;5008625;28;20756;-80
2022/05/07 11:02:37;;;;;;;8.80;7.33;;;;;;;;;;5008088;28;20487;-79
2022/05/07 11:05:04;;;;;;;10.27;6.10;;;;;;;;;;5008918;28;21317;-78
2022/05/07 11:07:30;;;;;;;6.68;5.50;;;;;;;;;;5007593;28;20439;-80
2022/05/07 11:09:56;;;;;;;6.10;5.50;;;;;;;;;;5009831;28;20428;-80
2022/05/07 11:12:23;;;;;;;7.70;6.30;;;;;;;;;;5005014;28;20436;-79
2022/05/07 11:14:51;;;;;;;9.27;6.35;;;;;;;;;;5007117;28;20443;-79
2022/05/07 11:17:28;;;;;;;9.32;6.85;;;;;;;;;;5009439;28;20933;-78
2022/05/07 11:19:54;;;;;;;8.85;6.40;;;;;;;;;;5007180;28;20491;-78
2022/05/07 11:22:24;;;;;;;8.00;5.80;;;;;;;;;;5001477;28;20444;-79
2022/05/07 11:24:55;;;;;;;9.93;6.10;;;;;;;;;;5003755;28;21058;-79
2022/05/07 11:27:24;;;;;;;8.35;5.90;;;;;;;;;;5010547;28;20447;-81
2022/05/07 11:29:52;;;;;;;9.60;6.50;;;;;;;;;;5002591;28;20569;-79
2022/05/07 11:32:18;;;;;;;7.07;6.10;;;;;;;;;;5004424;28;21025;-78
2022/05/07 11:34:45;;;;;;;8.40;6.68;;;;;;;;;;5008078;28;20561;-78
2022/05/07 11:37:14;;;;;;;7.83;6.97;;;;;;;;;;5008284;28;20432;-80
2022/05/07 11:39:47;;;;;;;9.73;7.55;;;;;;;;;;5006271;28;20420;-79
2022/05/07 11:42:25;;;;;;;7.30;6.50;;;;;;;;;;5006814;28;20918;-80
2022/05/07 11:47:37;;;;;;;8.98;7.63;;;;;;;;;;5010246;28;20917;-79
2022/05/07 11:50:05;;;;;;;10.48;7.85;;;;;;;;;;5008213;28;20429;-79
2022/05/07 11:52:32;;;;;;;16.48;13.85;;;;;;;;;;5006137;28;20527;-78
2022/05/07 11:55:03;;;;;;;256.67;234.50;;;;;;;;;;5006820;28;20425;-79
2022/05/07 11:57:29;;;;;;;21.20;18.95;;;;;;;;;;5009236;28;20467;-80
2022/05/07 11:59:58;;;;;;;51.20;46.45;;;;;;;;;;5007380;28;20424;-79
2022/05/07 12:02:24;;;;;;;17.35;15.45;;;;;;;;;;5005989;28;20462;-78
2022/05/07 12:04:56;;;;;;;11.40;10.18;;;;;;;;;;5005777;28;20467;-80
2022/05/07 12:07:23;;;;;;;13.73;9.25;;;;;;;;;;5005485;28;20491;-78
2022/05/07 12:09:49;;;;;;;20.23;18.17;;;;;;;;;;5009577;28;20428;-80
2022/05/07 12:12:15;;;;;;;13.93;12.52;;;;;;;;;;5006830;28;20488;-79
2022/05/07 12:14:41;;;;;;;14.80;13.25;;;;;;;;;;5008336;28;20444;-80
2022/05/07 12:19:53;;;;;;;15.77;9.07;;;;;;;;;;5005814;28;20436;-79
2022/05/07 12:30:36;;;;;;;12.10;9.30;;;;;;;;;;4963459;28;20491;-80
2022/05/07 12:33:04;;;;;;;11.85;9.18;;;;;;;;;;5008268;28;20477;-78
2022/05/07 12:35:30;;;;;;;9.60;8.32;;;;;;;;;;5006723;28;20505;-78
2022/05/07 12:37:57;;;;;;;13.40;7.60;;;;;;;;;;5006259;28;20434;-80
2022/05/07 12:40:23;;;;;;;16.73;7.93;;;;;;;;;;5004617;28;20425;-80
2022/05/07 12:42:49;;;;;;;9.60;6.47;;;;;;;;;;5004829;28;20481;-84
2022/05/07 12:45:16;;;;;;;9.88;7.22;;;;;;;;;;5005903;28;20449;-79
2022/05/07 12:47:42;;;;;;;9.77;6.93;;;;;;;;;;5001384;28;20959;-79
2022/05/07 12:50:10;;;;;;;9.27;6.85;;;;;;;;;;5007257;28;20846;-79
2022/05/07 12:52:36;;;;;;;9.75;6.90;;;;;;;;;;5006029;28;20432;-79
2022/05/07 12:55:02;;;;;;;8.55;6.15;;;;;;;;;;5005398;28;20859;-79
2022/05/07 12:57:30;;;;;;;7.95;6.07;;;;;;;;;;5006960;28;20493;-80
2022/05/07 12:59:57;;;;;;;8.05;6.45;;;;;;;;;;4994919;28;20422;-79
2022/05/07 13:02:23;;;;;;;8.40;6.47;;;;;;;;;;4985963;28;20438;-80
2022/05/07 13:04:49;;;;;;;7.80;6.00;;;;;;;;;;4997068;28;20429;-77
2022/05/07 13:07:17;;;;;;;9.63;6.23;;;;;;;;;;5001952;28;20441;-78
2022/05/07 13:09:43;;;;;;;8.18;5.85;;;;;;;;;;5004740;28;20425;-78
2022/05/07 13:12:13;;;;;;;9.40;6.18;;;;;;;;;;5004239;28;20429;-79
2022/05/07 13:14:39;;;;;;;8.20;7.28;;;;;;;;;;5002941;28;20906;-80
2022/05/07 13:17:06;;;;;;;11.37;7.60;;;;;;;;;;5002463;28;20432;-78
2022/05/07 13:19:32;;;;;;;11.07;6.93;;;;;;;;;;5004102;28;20456;-77
2022/05/07 13:21:58;;;;;;;8.50;6.30;;;;;;;;;;5001755;28;20444;-79
2022/05/07 13:24:26;;;;;;;6.95;5.45;;;;;;;;;;5004000;28;20473;-78
2022/05/07 13:26:52;;;;;;;5.95;4.60;;;;;;;;;;5001949;28;20437;-78
2022/05/07 13:29:19;;;;;;;5.93;5.05;;;;;;;;;;5005897;28;20421;-80
2022/05/07 13:31:45;;;;;;;8.50;5.47;;;;;;;;;;5004500;28;20439;-78
2022/05/07 13:34:11;;;;;;;7.68;5.20;;;;;;;;;;5006988;28;20417;-78
2022/05/07 13:36:37;;;;;;;4.95;4.20;;;;;;;;;;5003215;28;20448;-78
2022/05/07 13:39:04;;;;;;;6.68;5.10;;;;;;;;;;5001375;28;20504;-80
2022/05/07 13:41:31;;;;;;;5.60;4.70;;;;;;;;;;5008485;28;20433;-79
2022/05/07 13:44:00;;;;;;;5.10;4.18;;;;;;;;;;5005065;28;20417;-78
2022/05/07 13:46:27;;;;;;;7.27;4.70;;;;;;;;;;5003364;28;20432;-78
2022/05/07 13:48:53;;;;;;;6.95;4.57;;;;;;;;;;5002037;28;20438;-80
2022/05/07 13:51:20;;;;;;;6.18;4.50;;;;;;;;;;4996546;28;20438;-80
2022/05/07 13:53:46;;;;;;;7.30;4.50;;;;;;;;;;5035720;23;20435;-79
2022/05/07 13:56:13;;;;;;;6.85;4.45;;;;;;;;;;5031268;28;20423;-82
2022/05/07 13:58:41;;;;;;;4.65;3.70;;;;;;;;;;5026940;28;21411;-82
2022/05/07 14:01:08;;;;;;;4.82;4.18;;;;;;;;;;5034726;28;20463;-81
2022/05/07 14:03:34;;;;;;;4.65;3.80;;;;;;;;;;5030326;28;20420;-83
2022/05/07 14:06:01;;;;;;;5.28;4.00;;;;;;;;;;5023662;28;20418;-82
2022/05/07 14:08:27;;;;;;;5.50;3.58;;;;;;;;;;5026022;28;20431;-81
2022/05/07 14:10:53;;;;;;;4.35;3.50;;;;;;;;;;5017482;28;20479;-81
2022/05/07 14:13:19;;;;;;;6.47;4.47;;;;;;;;;;5018045;28;20450;-82
2022/05/07 14:15:47;;;;;;;5.90;4.30;;;;;;;;;;5023170;28;20423;-82
2022/05/07 14:18:13;;;;;;;6.82;4.80;;;;;;;;;;5023027;28;20424;-83
2022/05/07 14:20:40;;;;;;;5.97;4.93;;;;;;;;;;5023961;28;20424;-82
2022/05/07 14:23:09;;;;;;;6.80;4.40;;;;;;;;;;5028999;28;20423;-83
2022/05/07 14:25:35;;;;;;;7.25;4.75;;;;;;;;;;5027789;28;20429;-82
2022/05/07 14:28:03;;;;;;;5.78;4.65;;;;;;;;;;5023743;28;20458;-83
2022/05/07 14:30:29;;;;;;;6.90;4.25;;;;;;;;;;5027322;28;20488;-80
2022/05/07 14:32:57;;;;;;;6.15;4.50;;;;;;;;;;5024509;28;20427;-81
2022/05/07 14:35:23;;;;;;;6.10;4.50;;;;;;;;;;5027749;28;20963;-81
2022/05/07 14:37:49;;;;;;;4.55;4.00;;;;;;;;;;5024231;28;20431;-81
2022/05/07 14:40:32;;;;;;;5.97;5.20;;;;;;;;;;5027220;28;20452;-81
2022/05/07 14:42:59;;;;;;;4.47;3.95;;;;;;;;;;5025736;28;20426;-81
2022/05/07 14:45:26;;;;;;;5.33;4.30;;;;;;;;;;5025037;28;20423;-82
2022/05/07 14:47:52;;;;;;;5.13;3.90;;;;;;;;;;5024273;28;20488;-79
2022/05/07 14:50:20;;;;;;;5.57;4.10;;;;;;;;;;5023858;28;20446;-82
2022/05/07 14:52:46;;;;;;;5.80;3.80;;;;;;;;;;5025172;28;20460;-81
2022/05/07 14:55:13;;;;;;;5.63;4.80;;;;;;;;;;5030342;28;20411;-84
2022/05/07 14:57:39;;;;;;;4.90;4.40;;;;;;;;;;5030270;28;20903;-83
2022/05/07 15:00:07;;;;;;;5.00;3.72;;;;;;;;;;5027057;28;20551;-83
2022/05/07 15:02:33;;;;;;;3.70;3.20;;;;;;;;;;5019180;28;20465;-80
2022/05/07 15:05:00;;;;;;;5.38;3.03;;;;;;;;;;5027166;28;20431;-81
2022/05/07 15:07:28;;;;;;;3.40;3.10;;;;;;;;;;5024778;28;20452;-80
2022/05/07 15:12:52;;;;;;;3.87;3.30;;;;;;;;;;4976122;28;22527;-82
2022/05/07 15:15:19;;;;;;;4.65;3.83;;;;;;;;;;4974319;28;20432;-81